createdAt,value
2022-10-19T00:00:40.754Z,99576.53
2022-10-19T00:03:07.829Z,99580.91
2022-10-19T00:05:34.954Z,99576.63
2022-10-19T00:08:02.789Z,99574.84
2022-10-19T00:10:29.899Z,99571.41
2022-10-19T00:12:57.018Z,99570.59
2022-10-19T00:15:24.123Z,99571.41
2022-10-19T00:17:51.215Z,99568.88
2022-10-19T00:20:18.307Z,99567.97
2022-10-19T00:22:45.379Z,99571.50
2022-10-19T00:25:12.447Z,99569.75
2022-10-19T00:27:39.559Z,99568.88
2022-10-19T00:30:06.651Z,99575.03
2022-10-19T00:32:34.149Z,99575.88
2022-10-19T00:35:01.799Z,99575.88
2022-10-19T00:37:28.943Z,99586.28
2022-10-19T00:39:56.029Z,99582.03
2022-10-19T00:42:23.117Z,99588.06
2022-10-19T00:44:50.197Z,99593.28
2022-10-19T00:47:17.272Z,99599.31
2022-10-19T00:49:44.368Z,99598.50
2022-10-19T00:52:11.500Z,99592.44
2022-10-19T00:54:38.589Z,99590.78
2022-10-19T00:57:05.843Z,99600.25
2022-10-19T00:59:32.925Z,99589.09
2022-10-19T01:01:59.991Z,99588.25
2022-10-19T01:04:27.084Z,99588.25
2022-10-19T01:06:54.179Z,99583.03
2022-10-19T01:09:21.323Z,99586.59
2022-10-19T01:11:48.407Z,99583.97
2022-10-19T01:14:15.502Z,99578.78
2022-10-19T01:16:42.578Z,99584.81
2022-10-19T01:19:09.699Z,99582.19
2022-10-19T01:21:36.803Z,99588.34
2022-10-19T01:24:03.888Z,99583.97
2022-10-19T01:26:30.985Z,99585.75
2022-10-19T01:28:58.119Z,99589.19
2022-10-19T01:31:25.812Z,99581.47
2022-10-19T01:33:52.913Z,99585.84
2022-10-19T01:36:20.109Z,99585.00
2022-10-19T01:38:47.209Z,99581.56
2022-10-19T01:41:14.316Z,99582.38
2022-10-19T01:43:41.403Z,99573.75
2022-10-19T01:46:08.525Z,99570.31
2022-10-19T01:48:35.605Z,99567.69
2022-10-19T01:51:02.677Z,99562.59
2022-10-19T01:53:29.818Z,99561.66
2022-10-19T01:55:56.925Z,99560.00
2022-10-19T01:58:24.024Z,99560.81
2022-10-19T02:00:51.278Z,99553.84
2022-10-19T02:03:18.477Z,99553.00
2022-10-19T02:05:45.583Z,99549.56
2022-10-19T02:08:12.674Z,99544.44
2022-10-19T02:10:39.749Z,99550.47
2022-10-19T02:13:06.827Z,99543.53
2022-10-19T02:15:34.004Z,99547.03
2022-10-19T02:18:01.491Z,99543.59
2022-10-19T02:20:28.601Z,99540.06
2022-10-19T02:22:55.787Z,99531.41
2022-10-19T02:25:22.936Z,99531.41
2022-10-19T02:27:50.025Z,99526.19
2022-10-19T02:30:17.117Z,99529.63
2022-10-19T02:32:44.174Z,99531.41
2022-10-19T02:35:11.289Z,99515.91
2022-10-19T02:37:38.376Z,99516.72
2022-10-19T02:40:05.452Z,99514.13
2022-10-19T02:42:32.894Z,99519.31
2022-10-19T02:45:00.499Z,99521.81
2022-10-19T02:47:27.599Z,99513.28
2022-10-19T02:49:54.668Z,99516.84
2022-10-19T02:52:21.810Z,99514.22
2022-10-19T02:54:48.941Z,99516.84
2022-10-19T02:57:16.099Z,99514.22
2022-10-19T02:59:43.187Z,99517.66
2022-10-19T03:02:10.255Z,99516.84
2022-10-19T03:04:37.422Z,99517.66
2022-10-19T03:07:04.548Z,99505.53
2022-10-19T03:09:31.668Z,99510.88
2022-10-19T03:11:58.729Z,99512.53
2022-10-19T03:14:25.849Z,99510.03
2022-10-19T03:16:52.910Z,99511.81
2022-10-19T03:19:19.990Z,99512.63
2022-10-19T03:21:47.073Z,99508.38
2022-10-19T03:24:14.140Z,99515.25
2022-10-19T03:26:41.270Z,99514.31
2022-10-19T03:29:08.353Z,99513.47
2022-10-19T03:31:35.431Z,99511.81
2022-10-19T03:34:02.502Z,99512.63
2022-10-19T03:36:29.674Z,99510.97
2022-10-19T03:38:56.861Z,99517.97
2022-10-19T03:41:23.931Z,99510.16
2022-10-19T03:43:51.118Z,99510.97
2022-10-19T03:46:18.232Z,99505.75
2022-10-19T03:48:45.316Z,99506.66
2022-10-19T03:51:12.393Z,99514.50
2022-10-19T03:53:40.594Z,99509.38
2022-10-19T03:56:07.694Z,99524.06
2022-10-19T03:58:34.779Z,99512.81
2022-10-19T04:01:01.912Z,99515.44
2022-10-19T04:03:29.066Z,99518.97
2022-10-19T04:05:56.188Z,99525.00
2022-10-19T04:08:23.310Z,99525.00
2022-10-19T04:10:50.376Z,99522.41
2022-10-19T04:13:17.448Z,99517.31
2022-10-19T04:15:44.522Z,99517.31
2022-10-19T04:18:11.602Z,99516.38
2022-10-19T04:20:42.729Z,99510.31
2022-10-19T04:23:09.842Z,99510.31
2022-10-19T04:25:36.955Z,99507.78
2022-10-19T04:28:04.030Z,99512.09
2022-10-19T04:30:31.110Z,99511.16
2022-10-19T04:32:58.186Z,99512.19
2022-10-19T04:35:25.288Z,99509.56
2022-10-19T04:37:52.387Z,99514.78
2022-10-19T04:40:19.489Z,99511.34
2022-10-19T04:42:46.598Z,99506.13
2022-10-19T04:45:13.659Z,99505.19
2022-10-19T04:47:40.760Z,99512.19
2022-10-19T04:50:07.827Z,99513.94
2022-10-19T04:52:35.334Z,99513.00
2022-10-19T04:55:02.483Z,99513.94
2022-10-19T04:57:29.688Z,99513.13
2022-10-19T04:59:56.763Z,99507.06
2022-10-19T05:02:23.845Z,99505.38
2022-10-19T05:04:51.026Z,99504.47
2022-10-19T05:07:18.094Z,99506.25
2022-10-19T05:09:45.231Z,99500.94
2022-10-19T05:12:12.314Z,99500.94
2022-10-19T05:14:42.634Z,99503.63
2022-10-19T05:17:10.185Z,99500.16
2022-10-19T05:19:37.270Z,99501.94
2022-10-19T05:22:04.335Z,99499.34
2022-10-19T05:24:32.577Z,99499.34
2022-10-19T05:26:59.707Z,99501.94
2022-10-19T05:29:26.821Z,99498.63
2022-10-19T05:31:53.890Z,99501.09
2022-10-19T05:34:20.963Z,99507.97
2022-10-19T05:36:48.032Z,99505.38
2022-10-19T05:39:15.207Z,99502.88
2022-10-19T05:41:43.754Z,99509.88
2022-10-19T05:44:10.857Z,99509.03
2022-10-19T05:46:37.930Z,99510.69
2022-10-19T05:49:05.015Z,99513.41
2022-10-19T05:51:32.352Z,99514.25
2022-10-19T05:53:59.601Z,99514.25
2022-10-19T05:56:26.777Z,99515.19
2022-10-19T05:58:53.888Z,99514.31
2022-10-19T06:01:21.015Z,99517.78
2022-10-19T06:03:48.194Z,99511.72
2022-10-19T06:06:15.311Z,99516.00
2022-10-19T06:08:42.421Z,99513.41
2022-10-19T06:11:09.533Z,99512.66
2022-10-19T06:13:36.689Z,99513.47
2022-10-19T06:16:03.814Z,99519.53
2022-10-19T06:18:30.881Z,99523.06
2022-10-19T06:20:57.947Z,99533.47
2022-10-19T06:23:25.055Z,99536.91
2022-10-19T06:25:52.159Z,99537.75
2022-10-19T06:28:19.242Z,99537.75
2022-10-19T06:30:46.345Z,99546.44
2022-10-19T06:33:13.526Z,99543.91
2022-10-19T06:35:42.566Z,99540.47
2022-10-19T06:38:09.694Z,99536.09
2022-10-19T06:40:36.852Z,99539.63
2022-10-19T06:43:03.919Z,99546.50
2022-10-19T06:45:35.577Z,99537.84
2022-10-19T06:48:06.617Z,99541.41
2022-10-19T06:50:35.448Z,99537.03
2022-10-19T06:53:02.672Z,99539.63
2022-10-19T06:55:29.869Z,99536.19
2022-10-19T06:57:57.031Z,99545.66
2022-10-19T07:00:24.192Z,99540.56
2022-10-19T07:02:51.292Z,99541.41
2022-10-19T07:05:18.529Z,99543.91
2022-10-19T07:07:45.731Z,99549.03
2022-10-19T07:10:12.914Z,99548.28
2022-10-19T07:12:40.033Z,99555.25
2022-10-19T07:15:07.098Z,99552.66
2022-10-19T07:17:34.502Z,99560.47
2022-10-19T07:20:01.814Z,99569.94
2022-10-19T07:22:28.998Z,99576.09
2022-10-19T07:24:56.131Z,99574.31
2022-10-19T07:27:23.217Z,99566.59
2022-10-19T07:29:50.296Z,99567.34
2022-10-19T07:32:17.359Z,99569.94
2022-10-19T07:34:44.467Z,99576.91
2022-10-19T07:37:11.647Z,99570.88
2022-10-19T07:39:38.774Z,99571.59
2022-10-19T07:42:05.943Z,99572.53
2022-10-19T07:44:33.042Z,99566.41
2022-10-19T07:47:00.189Z,99568.28
2022-10-19T07:49:27.293Z,99570.78
2022-10-19T07:51:56.076Z,99567.34
2022-10-19T07:54:24.605Z,99570.88
2022-10-19T07:56:51.726Z,99583.06
2022-10-19T07:59:18.838Z,99576.91
2022-10-19T08:01:47.560Z,99576.09
2022-10-19T08:07:01.772Z,99589.09
2022-10-19T08:09:51.423Z,99584.72
2022-10-19T08:12:15.938Z,99582.97
2022-10-19T08:14:43.014Z,99581.19
2022-10-19T08:17:11.534Z,99582.22
2022-10-19T08:19:43.382Z,99591.72
2022-10-19T08:22:10.752Z,99591.72
2022-10-19T08:24:37.839Z,99591.72
2022-10-19T08:27:04.910Z,99595.16
2022-10-19T08:29:32.119Z,99583.91
2022-10-19T08:31:59.259Z,99589.94
2022-10-19T08:34:26.479Z,99589.00
2022-10-19T08:36:53.610Z,99577.75
2022-10-19T08:39:20.678Z,99583.06
2022-10-19T08:44:15.766Z,99577.84
2022-10-19T08:46:42.848Z,99570.03
2022-10-19T08:49:10.237Z,99569.94
2022-10-19T08:51:37.342Z,99572.47
2022-10-19T08:54:04.900Z,99574.13
2022-10-19T08:56:50.050Z,99571.41
2022-10-19T08:59:18.376Z,99580.00
2022-10-19T09:01:45.527Z,99572.25
2022-10-19T09:04:12.640Z,99579.06
2022-10-19T09:06:39.744Z,99586.41
2022-10-19T09:09:07.006Z,99584.44
2022-10-19T09:11:34.141Z,99583.44
2022-10-19T09:14:05.008Z,99582.50
2022-10-19T09:16:33.308Z,99585.84
2022-10-19T09:19:00.390Z,99588.53
2022-10-19T09:21:33.448Z,99589.19
2022-10-19T09:24:08.305Z,99587.41
2022-10-19T09:26:35.391Z,99596.00
2022-10-19T09:29:02.466Z,99592.56
2022-10-19T09:31:31.745Z,99595.81
2022-10-19T09:33:59.210Z,99594.88
2022-10-19T09:36:39.208Z,99595.59
2022-10-19T09:39:13.347Z,99594.75
2022-10-19T09:41:40.444Z,99605.09
2022-10-19T09:44:07.529Z,99599.97
2022-10-19T09:46:37.975Z,99599.97
2022-10-19T09:49:05.875Z,99607.78
2022-10-19T09:51:32.992Z,99605.19
2022-10-19T09:54:00.106Z,99606.13
2022-10-19T09:56:27.511Z,99598.31
2022-10-19T09:58:54.622Z,99592.25
2022-10-19T10:01:23.944Z,99595.06
2022-10-19T10:03:53.847Z,99587.34
2022-10-19T10:06:23.108Z,99582.03
2022-10-19T10:08:50.428Z,99580.34
2022-10-19T10:11:17.554Z,99578.66
2022-10-19T10:13:44.687Z,99576.06
2022-10-19T10:16:11.941Z,99577.94
2022-10-19T10:18:39.507Z,99572.84
2022-10-19T10:21:07.220Z,99561.53
2022-10-19T10:23:36.345Z,99563.31
2022-10-19T10:26:03.459Z,99565.09
2022-10-19T10:28:30.571Z,99566.88
2022-10-19T10:30:57.653Z,99567.69
2022-10-19T10:33:43.741Z,99560.81
2022-10-19T10:36:11.621Z,99551.22
2022-10-19T10:38:38.692Z,99556.44
2022-10-19T10:41:08.303Z,99546.13
2022-10-19T10:43:35.383Z,99545.28
2022-10-19T10:46:02.483Z,99546.13
2022-10-19T10:48:29.792Z,99544.53
2022-10-19T10:50:57.016Z,99538.41
2022-10-19T10:53:24.126Z,99537.56
2022-10-19T10:55:51.198Z,99530.69
2022-10-19T10:58:18.280Z,99527.13
2022-10-19T11:00:45.351Z,99534.00
2022-10-19T11:03:12.422Z,99531.53
2022-10-19T11:05:39.545Z,99537.56
2022-10-19T11:08:06.604Z,99527.13
2022-10-19T11:10:33.674Z,99525.38
2022-10-19T11:13:00.772Z,99523.72
2022-10-19T11:15:27.956Z,99515.91
2022-10-19T11:17:55.131Z,99513.28
2022-10-19T11:20:22.244Z,99499.50
2022-10-19T11:22:49.326Z,99506.41
2022-10-19T11:25:16.429Z,99498.50
2022-10-19T11:27:43.499Z,99499.44
2022-10-19T11:30:10.662Z,99489.84
2022-10-19T11:32:37.822Z,99493.28
2022-10-19T11:35:04.947Z,99487.97
2022-10-19T11:37:32.270Z,99495.78
2022-10-19T11:40:00.215Z,99487.06
2022-10-19T11:42:27.521Z,99483.50
2022-10-19T11:44:54.606Z,99479.13
2022-10-19T11:47:21.774Z,99479.13
2022-10-19T11:49:48.855Z,99477.34
2022-10-19T11:52:15.955Z,99477.34
2022-10-19T11:54:43.031Z,99469.53
2022-10-19T11:57:11.693Z,99473.09
2022-10-19T11:59:39.119Z,99475.50
2022-10-19T12:02:06.329Z,99470.38
2022-10-19T12:04:33.465Z,99472.16
2022-10-19T12:07:00.578Z,99470.38
2022-10-19T12:09:28.207Z,99461.72
2022-10-19T12:11:55.303Z,99459.13
2022-10-19T12:14:22.416Z,99448.69
2022-10-19T12:16:50.068Z,99449.53
2022-10-19T12:19:17.143Z,99447.88
2022-10-19T12:21:44.264Z,99440.88
2022-10-19T12:24:11.333Z,99445.19
2022-10-19T12:26:38.429Z,99440.06
2022-10-19T12:29:06.140Z,99431.41
2022-10-19T12:31:33.275Z,99427.03
2022-10-19T12:34:00.416Z,99433.91
2022-10-19T12:36:27.529Z,99425.25
2022-10-19T12:39:00.029Z,99429.56
2022-10-19T12:41:28.168Z,99424.22
2022-10-19T12:43:55.290Z,99419.97
2022-10-19T12:46:22.374Z,99411.31
2022-10-19T12:48:49.458Z,99419.97
2022-10-19T12:51:16.564Z,99413.94
2022-10-19T12:53:44.346Z,99408.59
2022-10-19T12:56:11.448Z,99398.31
2022-10-19T12:58:38.543Z,99401.72
2022-10-19T13:01:05.669Z,99397.34
2022-10-19T13:03:32.850Z,99396.53
2022-10-19T13:06:00.132Z,99394.75
2022-10-19T13:08:27.271Z,99389.53
2022-10-19T13:10:54.397Z,99377.34
2022-10-19T13:13:21.545Z,99379.00
2022-10-19T13:15:48.618Z,99370.25
2022-10-19T13:18:16.906Z,99363.28
2022-10-19T13:20:44.012Z,99367.66
2022-10-19T13:23:11.100Z,99366.81
2022-10-19T13:25:38.186Z,99364.13
2022-10-19T13:28:05.264Z,99369.22
2022-10-19T13:30:32.369Z,99365.03
2022-10-19T13:32:59.452Z,99362.44
2022-10-19T13:35:26.567Z,99356.19
2022-10-19T13:37:53.657Z,99357.03
2022-10-19T13:40:24.437Z,99359.84
2022-10-19T13:42:52.032Z,99363.94
2022-10-19T13:45:19.146Z,99360.69
2022-10-19T13:47:47.576Z,99355.38
2022-10-19T13:50:14.655Z,99358.72
2022-10-19T13:52:41.803Z,99350.03
2022-10-19T13:55:08.919Z,99344.94
2022-10-19T13:57:36.284Z,99342.97
2022-10-19T14:00:03.623Z,99344.84
2022-10-19T14:02:30.762Z,99346.41
2022-10-19T14:04:57.843Z,99344.75
2022-10-19T14:07:24.956Z,99346.53
2022-10-19T14:09:52.037Z,99343.81
2022-10-19T14:12:19.134Z,99343.81
2022-10-19T14:14:46.226Z,99337.78
2022-10-19T14:17:13.329Z,99337.88
2022-10-19T14:19:40.420Z,99335.34
2022-10-19T14:22:07.503Z,99332.88
2022-10-19T14:24:34.618Z,99328.38
2022-10-19T14:27:01.840Z,99318.78
2022-10-19T14:29:28.952Z,99317.97
2022-10-19T14:31:56.052Z,99314.53
2022-10-19T14:34:23.171Z,99315.34
2022-10-19T14:36:50.644Z,99312.75
2022-10-19T14:39:17.716Z,99304.94
2022-10-19T14:41:44.802Z,99296.28
2022-10-19T14:44:11.916Z,99297.03
2022-10-19T14:46:39.107Z,99301.50
2022-10-19T14:49:06.229Z,99302.31
2022-10-19T14:51:33.367Z,99300.66
2022-10-19T14:54:00.583Z,99304.09
2022-10-19T14:56:27.654Z,99296.19
2022-10-19T14:58:54.842Z,99307.44
2022-10-19T15:01:21.939Z,99299.53
2022-10-19T15:03:49.045Z,99295.06
2022-10-19T15:06:16.256Z,99296.91
2022-10-19T15:08:43.957Z,99297.03
2022-10-19T15:11:11.133Z,99301.19
2022-10-19T15:13:38.207Z,99295.97
2022-10-19T15:16:05.299Z,99296.81
2022-10-19T15:18:48.372Z,99291.59
2022-10-19T15:21:16.530Z,99289.94
2022-10-19T15:23:43.660Z,99291.72
2022-10-19T15:26:17.016Z,99288.28
2022-10-19T15:28:44.604Z,99287.31
2022-10-19T15:31:11.688Z,99276.91
2022-10-19T15:33:39.250Z,99274.31
2022-10-19T15:36:06.349Z,99275.03
2022-10-19T15:38:34.742Z,99272.44
2022-10-19T15:41:01.863Z,99275.13
2022-10-19T15:43:28.972Z,99274.09
2022-10-19T15:45:56.044Z,99266.41
2022-10-19T15:48:23.155Z,99268.16
2022-10-19T15:50:50.294Z,99265.53
2022-10-19T15:53:17.497Z,99261.19
2022-10-19T15:55:44.559Z,99262.94
2022-10-19T15:58:11.666Z,99270.75
2022-10-19T16:00:38.750Z,99268.25
2022-10-19T16:03:05.822Z,99271.69
2022-10-19T16:05:32.941Z,99263.78
2022-10-19T16:08:00.143Z,99266.16
2022-10-19T16:10:27.243Z,99262.66
2022-10-19T16:12:54.323Z,99269.63
2022-10-19T16:15:24.646Z,99264.31
2022-10-19T16:17:51.801Z,99259.63
2022-10-19T16:20:18.905Z,99259.63
2022-10-19T16:22:45.995Z,99259.63
2022-10-19T16:25:14.093Z,99261.38
2022-10-19T16:27:41.245Z,99261.50
2022-10-19T16:30:08.344Z,99255.47
2022-10-19T16:32:35.595Z,99256.19
2022-10-19T16:35:02.710Z,99250.97
2022-10-19T16:37:29.857Z,99259.41
2022-10-19T16:39:56.963Z,99257.00
2022-10-19T16:42:29.652Z,99263.91
2022-10-19T16:44:59.184Z,99261.31
2022-10-19T16:47:26.270Z,99265.66
2022-10-19T16:49:53.340Z,99268.19
2022-10-19T16:52:20.473Z,99268.25
2022-10-19T16:54:47.534Z,99267.16
2022-10-19T16:57:14.877Z,99274.97
2022-10-19T16:59:42.009Z,99277.56
2022-10-19T17:02:09.148Z,99272.25
2022-10-19T17:04:36.307Z,99273.06
2022-10-19T17:07:03.442Z,99274.09
2022-10-19T17:09:41.357Z,99272.25
2022-10-19T17:12:09.501Z,99274.00
2022-10-19T17:14:36.852Z,99273.06
2022-10-19T17:17:04.013Z,99276.50
2022-10-19T17:19:31.143Z,99278.19
2022-10-19T17:21:59.097Z,99280.06
2022-10-19T17:24:26.215Z,99273.06
2022-10-19T17:26:53.296Z,99273.91
2022-10-19T17:29:21.851Z,99280.88
2022-10-19T17:31:49.060Z,99274.72
2022-10-19T17:34:16.331Z,99279.13
2022-10-19T17:36:46.532Z,99279.13
2022-10-19T17:39:13.899Z,99275.78
2022-10-19T17:41:41.121Z,99277.78
2022-10-19T17:44:08.237Z,99278.47
2022-10-19T17:46:35.381Z,99275.69
2022-10-19T17:49:02.462Z,99281.00
2022-10-19T17:51:29.619Z,99274.22
2022-10-19T17:53:56.699Z,99281.09
2022-10-19T17:56:23.777Z,99277.56
2022-10-19T17:58:50.855Z,99275.78
2022-10-19T18:01:17.937Z,99282.66
2022-10-19T18:03:45.082Z,99283.50
2022-10-19T18:06:12.200Z,99283.50
2022-10-19T18:08:39.450Z,99280.06
2022-10-19T18:11:06.628Z,99286.09
2022-10-19T18:13:33.793Z,99282.56
2022-10-19T18:16:01.395Z,99279.13
2022-10-19T18:18:28.496Z,99281.00
2022-10-19T18:20:55.589Z,99276.50
2022-10-19T18:23:22.648Z,99266.81
2022-10-19T18:25:54.410Z,99273.81
2022-10-19T18:28:21.636Z,99274.22
2022-10-19T18:30:48.736Z,99279.63
2022-10-19T18:33:15.818Z,99276.31
2022-10-19T18:35:42.956Z,99275.38
2022-10-19T18:38:10.047Z,99273.59
2022-10-19T18:40:37.206Z,99276.06
2022-10-19T18:43:04.283Z,99285.47
2022-10-19T18:45:31.376Z,99275.25
2022-10-19T18:47:58.474Z,99274.41
2022-10-19T18:50:25.575Z,99281.28
2022-10-19T18:52:52.695Z,99282.16
2022-10-19T18:55:19.875Z,99279.44
2022-10-19T18:57:46.954Z,99277.78
2022-10-19T19:00:14.063Z,99278.59
2022-10-19T19:02:46.939Z,99269.13
2022-10-19T19:05:14.473Z,99264.00
2022-10-19T19:07:41.554Z,99256.09
2022-10-19T19:10:08.634Z,99255.97
2022-10-19T19:12:35.983Z,99253.38
2022-10-19T19:15:03.258Z,99257.00
2022-10-19T19:17:30.436Z,99259.72
2022-10-19T19:19:57.586Z,99258.78
2022-10-19T19:22:26.141Z,99257.94
2022-10-19T19:24:53.350Z,99260.69
2022-10-19T19:27:22.732Z,99259.84
2022-10-19T19:29:49.915Z,99255.34
2022-10-19T19:32:17.035Z,99256.91
2022-10-19T19:34:44.106Z,99249.94
2022-10-19T19:37:11.380Z,99256.91
2022-10-19T19:39:38.526Z,99254.41
2022-10-19T19:42:05.636Z,99258.91
2022-10-19T19:44:32.736Z,99255.47
2022-10-19T19:46:59.802Z,99253.78
2022-10-19T19:49:27.111Z,99250.25
2022-10-19T19:51:54.219Z,99249.50
2022-10-19T19:54:21.326Z,99253.88
2022-10-19T19:56:48.403Z,99256.38
2022-10-19T19:59:15.481Z,99248.69
2022-10-19T20:01:42.715Z,99252.13
2022-10-19T20:04:09.850Z,99246.91
2022-10-19T20:06:36.967Z,99247.09
2022-10-19T20:09:04.078Z,99247.84
2022-10-19T20:11:31.274Z,99254.84
2022-10-19T20:13:58.342Z,99254.09
2022-10-19T20:16:28.304Z,99254.84
2022-10-19T20:18:56.500Z,99247.00
2022-10-19T20:21:25.598Z,99241.19
2022-10-19T20:23:52.939Z,99248.16
2022-10-19T20:26:20.059Z,99242.94
2022-10-19T20:28:47.131Z,99240.34
2022-10-19T20:31:14.260Z,99238.56
2022-10-19T20:33:41.370Z,99238.56
2022-10-19T20:36:08.496Z,99237.63
2022-10-19T20:38:35.569Z,99241.81
2022-10-19T20:41:05.478Z,99241.81
2022-10-19T20:43:35.020Z,99244.63
2022-10-19T20:46:02.104Z,99242.09
2022-10-19T20:48:29.167Z,99246.47
2022-10-19T20:50:56.296Z,99249.06
2022-10-19T20:53:23.414Z,99239.47
2022-10-19T20:55:50.488Z,99243.03
2022-10-19T20:58:17.629Z,99242.09
2022-10-19T21:00:44.737Z,99240.63
2022-10-19T21:03:11.823Z,99237.19
2022-10-19T21:05:38.929Z,99229.28
2022-10-19T21:10:35.382Z,99219.91
2022-10-19T21:13:02.473Z,99225.31
2022-10-19T21:15:29.595Z,99226.16
2022-10-19T21:17:56.682Z,99227.09
2022-10-19T21:20:23.738Z,99221.88
2022-10-19T21:22:51.023Z,99219.28
2022-10-19T21:25:18.099Z,99213.13
2022-10-19T21:27:45.173Z,99211.66
2022-10-19T21:30:12.256Z,99213.25
2022-10-19T21:32:39.339Z,99212.50
2022-10-19T21:35:06.421Z,99213.44
2022-10-19T21:37:34.110Z,99216.66
2022-10-19T21:40:01.372Z,99206.13
2022-10-19T21:42:28.484Z,99214.91
2022-10-19T21:45:06.254Z,99213.44
2022-10-19T21:47:39.150Z,99224.69
2022-10-19T21:50:06.289Z,99219.69
2022-10-19T21:52:33.390Z,99220.53
2022-10-19T21:55:00.455Z,99216.03
2022-10-19T21:57:27.551Z,99216.03
2022-10-19T21:59:54.631Z,99209.88
2022-10-19T22:02:21.691Z,99210.75
2022-10-19T22:04:48.804Z,99204.78
2022-10-19T22:07:15.927Z,99207.50
2022-10-19T22:09:43.007Z,99206.56
2022-10-19T22:12:10.128Z,99211.84
2022-10-19T22:14:37.254Z,99209.25
2022-10-19T22:17:04.344Z,99211.03
2022-10-19T22:19:31.481Z,99211.97
2022-10-19T22:21:58.572Z,99202.19
2022-10-19T22:24:25.656Z,99188.34
2022-10-19T22:26:52.769Z,99186.88
2022-10-19T22:29:19.859Z,99188.72
2022-10-19T22:31:46.975Z,99180.09
2022-10-19T22:34:14.082Z,99186.13
2022-10-19T22:36:41.209Z,99183.66
2022-10-19T22:39:08.384Z,99183.66
2022-10-19T22:41:35.488Z,99174.88
2022-10-19T22:44:02.597Z,99169.69
2022-10-19T22:46:29.675Z,99168.72
2022-10-19T22:48:56.839Z,99176.03
2022-10-19T22:51:23.975Z,99168.41
2022-10-19T22:53:51.111Z,99166.75
2022-10-19T22:56:18.227Z,99171.22
2022-10-19T22:58:45.306Z,99186.03
2022-10-19T23:01:12.451Z,99175.72
2022-10-19T23:03:40.412Z,99173.19
2022-10-19T23:06:07.750Z,99166.31
2022-10-19T23:08:35.029Z,99164.56
2022-10-19T23:11:02.112Z,99163.66
2022-10-19T23:13:29.206Z,99171.66
2022-10-19T23:15:56.275Z,99169.06
2022-10-19T23:18:23.390Z,99168.22
2022-10-19T23:20:50.449Z,99171.72
2022-10-19T23:23:17.515Z,99165.69
2022-10-19T23:25:44.591Z,99176.13
2022-10-19T23:28:11.692Z,99174.47
2022-10-19T23:30:38.773Z,99176.94
2022-10-19T23:33:05.839Z,99183.22
2022-10-19T23:35:32.937Z,99181.31
2022-10-19T23:38:00.004Z,99187.47
2022-10-19T23:40:27.073Z,99175.41
2022-10-19T23:42:54.156Z,99181.44
2022-10-19T23:45:21.284Z,99178.84
2022-10-19T23:47:48.400Z,99178.00
2022-10-19T23:50:15.519Z,99174.66
2022-10-19T23:52:42.635Z,99171.22
2022-10-19T23:55:09.710Z,99170.28
2022-10-19T23:57:37.252Z,99173.81
